TimeMDT,TemperatureF,Dew PointF,Humidity,Sea Level PressureIn,VisibilityMPH,Wind Direction,Wind SpeedMPH,Gust SpeedMPH,PrecipitationIn,Events,Conditions,WindDirDegrees,DateUTC
12:15 AM,59.0,50.0,72,30.23,10.0,North,4.6,-,N/A,,Overcast,350,2012-07-26 06:15:00
12:35 AM,57.2,50.0,77,30.23,10.0,NNW,5.8,-,N/A,,Scattered Clouds,330,2012-07-26 06:35:00
12:55 AM,57.2,51.8,82,30.23,10.0,NW,6.9,-,N/A,,Scattered Clouds,320,2012-07-26 06:55:00
1:15 AM,59.0,51.8,77,30.24,10.0,Calm,Calm,-,N/A,,Mostly Cloudy,0,2012-07-26 07:15:00
1:35 AM,60.8,51.8,72,30.24,10.0,North,5.8,-,N/A,,Overcast,360,2012-07-26 07:35:00
1:55 AM,60.8,51.8,72,30.23,10.0,North,5.8,-,N/A,,Overcast,360,2012-07-26 07:55:00
2:15 AM,60.8,51.8,72,30.24,10.0,North,3.5,-,N/A,,Overcast,360,2012-07-26 08:15:00
2:35 AM,60.8,51.8,72,30.23,10.0,North,3.5,-,N/A,,Overcast,360,2012-07-26 08:35:00
2:55 AM,60.8,51.8,72,30.24,10.0,North,5.8,-,N/A,,Overcast,350,2012-07-26 08:55:00
3:15 AM,60.8,51.8,72,30.24,10.0,North,3.5,-,N/A,,Overcast,10,2012-07-26 09:15:00
3:35 AM,60.8,51.8,72,30.24,10.0,NE,4.6,-,N/A,,Scattered Clouds,40,2012-07-26 09:35:00
3:55 AM,57.2,51.8,82,30.24,10.0,North,5.8,-,N/A,,Clear,10,2012-07-26 09:55:00
4:15 AM,55.4,50.0,82,30.24,10.0,NNW,6.9,-,N/A,,Clear,330,2012-07-26 10:15:00
4:35 AM,55.4,48.2,77,30.24,10.0,North,6.9,-,N/A,,Clear,360,2012-07-26 10:35:00
4:55 AM,55.4,48.2,77,30.24,10.0,North,8.1,-,N/A,,Clear,10,2012-07-26 10:55:00
5:15 AM,55.4,50.0,82,30.24,10.0,North,6.9,-,N/A,,Clear,350,2012-07-26 11:15:00
5:35 AM,53.6,48.2,82,30.25,10.0,NNW,5.8,-,N/A,,Clear,330,2012-07-26 11:35:00
5:55 AM,55.4,50.0,82,30.26,10.0,NNW,5.8,-,N/A,,Clear,330,2012-07-26 11:55:00
6:15 AM,55.4,48.2,77,30.27,10.0,NNW,5.8,-,N/A,,Clear,340,2012-07-26 12:15:00
6:55 AM,55.4,48.2,77,30.29,10.0,North,6.9,-,N/A,,Clear,350,2012-07-26 12:55:00
7:15 AM,57.2,48.2,72,30.29,10.0,North,6.9,-,N/A,,Clear,360,2012-07-26 13:15:00
7:35 AM,59.0,50.0,72,30.30,10.0,NNW,6.9,-,N/A,,Clear,340,2012-07-26 13:35:00
7:55 AM,62.6,50.0,63,30.31,10.0,North,8.1,-,N/A,,Clear,360,2012-07-26 13:55:00
8:15 AM,64.4,50.0,59,30.31,10.0,North,9.2,-,N/A,,Clear,360,2012-07-26 14:15:00
8:35 AM,66.2,50.0,56,30.32,10.0,North,6.9,-,N/A,,Clear,350,2012-07-26 14:35:00
8:55 AM,69.8,50.0,49,30.32,10.0,North,5.8,-,N/A,,Clear,360,2012-07-26 14:55:00
9:15 AM,71.6,50.0,46,30.32,10.0,North,4.6,-,N/A,,Clear,360,2012-07-26 15:15:00
9:35 AM,73.4,50.0,44,30.31,10.0,Calm,Calm,-,N/A,,Clear,0,2012-07-26 15:35:00
9:55 AM,73.4,51.8,47,30.31,10.0,ENE,5.8,-,N/A,,Clear,70,2012-07-26 15:55:00
10:15 AM,75.2,50.0,41,30.31,10.0,NNE,4.6,-,N/A,,Clear,20,2012-07-26 16:15:00
10:35 AM,77.0,50.0,39,30.31,10.0,NNW,5.8,-,N/A,,Clear,330,2012-07-26 16:35:00
10:55 AM,78.8,50.0,36,30.31,10.0,NNW,9.2,-,N/A,,Clear,330,2012-07-26 16:55:00
11:15 AM,80.6,50.0,34,30.30,10.0,NNE,4.6,-,N/A,,Clear,20,2012-07-26 17:15:00
11:35 AM,82.4,50.0,32,30.29,10.0,NNW,5.8,-,N/A,,Partly Cloudy,340,2012-07-26 17:35:00
11:55 AM,82.4,48.2,30,30.28,10.0,NW,8.1,-,N/A,,Partly Cloudy,310,2012-07-26 17:55:00
12:15 PM,82.4,48.2,30,30.28,10.0,NE,9.2,-,N/A,Thunderstorm,Clear,40,2012-07-26 18:15:00
12:35 PM,82.4,48.2,30,30.28,10.0,Calm,Calm,-,N/A,,Scattered Clouds,0,2012-07-26 18:35:00
12:55 PM,84.2,46.4,27,30.27,10.0,Calm,Calm,-,N/A,,Mostly Cloudy,0,2012-07-26 18:55:00
1:15 PM,82.4,46.4,28,30.27,10.0,SSE,15.0,18.4,N/A,,Mostly Cloudy,160,2012-07-26 19:15:00
1:35 PM,84.2,46.4,27,30.26,10.0,SSE,16.1,23.0,N/A,,Partly Cloudy,160,2012-07-26 19:35:00
1:55 PM,84.2,46.4,27,30.26,10.0,South,13.8,21.9,N/A,,Clear,180,2012-07-26 19:55:00
2:15 PM,84.2,46.4,27,30.26,10.0,SSE,16.1,21.9,N/A,,Clear,150,2012-07-26 20:15:00
2:35 PM,84.2,46.4,27,30.26,10.0,SSE,16.1,21.9,N/A,,Clear,150,2012-07-26 20:35:00
2:55 PM,86.0,46.4,25,30.25,10.0,SE,18.4,25.3,N/A,,Clear,140,2012-07-26 20:55:00
3:15 PM,80.6,44.6,28,30.25,10.0,SSE,17.3,23.0,N/A,,Clear,160,2012-07-26 21:15:00
3:35 PM,80.6,44.6,28,30.25,10.0,SE,17.3,23.0,N/A,,Clear,140,2012-07-26 21:35:00
3:55 PM,80.6,44.6,28,30.26,10.0,SE,18.4,-,N/A,,Mostly Cloudy,130,2012-07-26 21:55:00
4:15 PM,78.8,44.6,30,30.27,10.0,ESE,20.7,24.2,N/A,Thunderstorm,Mostly Cloudy,110,2012-07-26 22:15:00
4:35 PM,75.2,44.6,34,30.30,9.0,NW,12.7,20.7,N/A,Thunderstorm,Thunderstorm,320,2012-07-26 22:35:00
4:55 PM,68.0,48.2,49,30.32,7.0,WNW,15.0,33.4,N/A,Thunderstorm,Thunderstorm,300,2012-07-26 22:55:00
5:15 PM,64.4,51.8,64,30.30,8.0,SSW,12.7,18.4,0.10,Thunderstorm,Thunderstorm,200,2012-07-26 23:15:00
5:35 PM,62.6,53.6,72,30.29,10.0,South,8.1,-,0.11,Thunderstorm,Overcast,170,2012-07-26 23:35:00
5:55 PM,62.6,53.6,72,30.32,10.0,East,4.6,-,0.11,Thunderstorm,Overcast,100,2012-07-26 23:55:00
6:15 PM,62.6,53.6,72,30.31,10.0,SE,16.1,-,0.01,,Overcast,140,2012-07-27 00:15:00
6:35 PM,60.8,53.6,77,30.29,10.0,SE,20.7,-,0.01,,Overcast,140,2012-07-27 00:35:00
6:55 PM,62.6,53.6,72,30.27,10.0,SSE,17.3,-,0.01,,Mostly Cloudy,160,2012-07-27 00:55:00
7:15 PM,62.6,53.6,72,30.30,10.0,SSE,4.6,-,N/A,,Clear,150,2012-07-27 01:15:00
7:35 PM,64.4,53.6,68,30.30,10.0,South,8.1,-,N/A,,Clear,180,2012-07-27 01:35:00
7:55 PM,64.4,53.6,68,30.30,10.0,South,8.1,-,N/A,,Clear,190,2012-07-27 01:55:00
8:15 PM,64.4,51.8,64,30.31,10.0,SW,11.5,-,N/A,,Clear,230,2012-07-27 02:15:00
8:35 PM,64.4,50.0,59,30.32,10.0,SSW,8.1,-,N/A,,Clear,200,2012-07-27 02:35:00
8:55 PM,62.6,50.0,63,30.32,10.0,WNW,4.6,-,N/A,,Clear,290,2012-07-27 02:55:00
9:15 PM,64.4,48.2,56,30.33,10.0,Calm,Calm,-,N/A,,Clear,0,2012-07-27 03:15:00
9:35 PM,62.6,48.2,59,30.33,10.0,NW,4.6,-,N/A,,Clear,320,2012-07-27 03:35:00
9:55 PM,62.6,51.8,68,30.34,10.0,ENE,4.6,-,N/A,,Clear,60,2012-07-27 03:55:00
10:15 PM,62.6,51.8,68,30.35,10.0,ENE,4.6,-,N/A,,Clear,70,2012-07-27 04:15:00
10:35 PM,59.0,51.8,77,30.35,10.0,NNE,3.5,-,N/A,,Clear,30,2012-07-27 04:35:00
10:55 PM,60.8,53.6,77,30.35,10.0,Calm,Calm,-,N/A,,Clear,0,2012-07-27 04:55:00
11:35 PM,59.0,51.8,77,30.35,10.0,Calm,Calm,-,N/A,,Mostly Cloudy,0,2012-07-27 05:35:00
11:55 PM,57.2,51.8,82,30.35,10.0,Calm,Calm,-,N/A,,Mostly Cloudy,0,2012-07-27 05:55:00